createdAt,value
2022-09-04T00:01:02.743Z,100.00
2022-09-04T00:03:32.978Z,100.00
2022-09-04T00:06:03.634Z,100.00
2022-09-04T00:08:41.261Z,100.00
2022-09-04T00:11:11.479Z,100.00
2022-09-04T00:13:42.783Z,100.00
2022-09-04T00:16:12.520Z,100.00
2022-09-04T00:18:41.499Z,100.00
2022-09-04T00:21:15.894Z,100.00
2022-09-04T00:23:47.413Z,100.00
2022-09-04T00:26:20.880Z,100.00
2022-09-04T00:28:49.285Z,100.00
2022-09-04T00:31:20.787Z,100.00
2022-09-04T00:33:50.270Z,100.00
2022-09-04T00:36:19.082Z,100.00
2022-09-04T00:38:48.497Z,100.00
2022-09-04T00:41:19.607Z,100.00
2022-09-04T00:44:07.099Z,100.00
2022-09-04T00:46:46.356Z,100.00
2022-09-04T00:49:23.029Z,100.00
2022-09-04T00:51:56.535Z,100.00
2022-09-04T00:54:33.810Z,100.00
2022-09-04T00:57:29.179Z,100.00
2022-09-04T01:00:02.267Z,100.00
2022-09-04T01:02:34.955Z,100.00
2022-09-04T01:05:07.303Z,100.00
2022-09-04T01:07:44.192Z,100.00
2022-09-04T01:10:24.799Z,100.00
2022-09-04T01:12:56.905Z,100.00
2022-09-04T01:15:26.744Z,100.00
2022-09-04T01:17:59.959Z,100.00
2022-09-04T01:20:31.016Z,100.00
2022-09-04T01:23:12.222Z,100.00
2022-09-04T01:26:00.784Z,100.00
2022-09-04T01:28:29.699Z,100.00
2022-09-04T01:31:01.096Z,100.00
2022-09-04T01:33:31.411Z,100.00
2022-09-04T01:36:02.078Z,100.00
2022-09-04T01:38:33.132Z,100.00
2022-09-04T01:41:03.962Z,100.00
2022-09-04T01:43:30.451Z,100.00
2022-09-04T01:46:05.352Z,100.00
2022-09-04T01:48:36.273Z,100.00
2022-09-04T01:51:06.109Z,100.00
2022-09-04T01:53:36.951Z,100.00
2022-09-04T01:56:08.478Z,100.00
2022-09-04T01:58:41.135Z,100.00
2022-09-04T02:01:13.158Z,100.00
2022-09-04T02:03:45.440Z,100.00
2022-09-04T02:06:15.879Z,100.00
2022-09-04T02:08:46.779Z,100.00
2022-09-04T02:11:16.265Z,100.00
2022-09-04T02:13:47.287Z,100.00
2022-09-04T02:16:16.848Z,100.00
2022-09-04T02:18:50.045Z,100.00
2022-09-04T02:21:19.623Z,100.00
2022-09-04T02:23:49.391Z,100.00
2022-09-04T02:26:20.299Z,100.00
2022-09-04T02:28:52.344Z,100.00
2022-09-04T02:31:23.305Z,100.00
2022-09-04T02:33:52.548Z,100.00
2022-09-04T02:36:22.635Z,100.00
2022-09-04T02:38:54.466Z,100.00
2022-09-04T02:41:24.758Z,100.00
2022-09-04T02:43:57.630Z,100.00
2022-09-04T02:46:27.527Z,100.00
2022-09-04T02:48:57.986Z,100.00
2022-09-04T02:51:32.698Z,100.00
2022-09-04T02:54:02.490Z,100.00
2022-09-04T02:56:35.730Z,100.00
2022-09-04T02:59:10.827Z,100.00
2022-09-04T03:01:45.426Z,100.00
2022-09-04T03:04:18.063Z,100.00
2022-09-04T03:06:49.783Z,100.00
2022-09-04T03:09:19.298Z,100.00
2022-09-04T03:11:50.282Z,100.00
2022-09-04T03:14:20.823Z,100.00
2022-09-04T03:16:50.235Z,100.00
2022-09-04T03:19:19.431Z,100.00
2022-09-04T03:21:48.807Z,100.00
2022-09-04T03:24:17.864Z,100.00
2022-09-04T03:26:47.028Z,100.00
2022-09-04T03:29:21.832Z,100.00
2022-09-04T03:31:51.019Z,100.00
2022-09-04T03:34:26.209Z,100.00
2022-09-04T03:37:03.550Z,100.00
2022-09-04T03:39:35.698Z,100.00
2022-09-04T03:42:06.540Z,100.00
2022-09-04T03:44:42.324Z,100.00
2022-09-04T03:47:15.091Z,100.00
2022-09-04T03:49:48.046Z,100.00
2022-09-04T03:52:20.048Z,100.00
2022-09-04T03:54:53.846Z,100.00
2022-09-04T03:57:29.907Z,100.00
2022-09-04T04:00:06.238Z,100.00
2022-09-04T04:02:41.147Z,100.00
2022-09-04T04:05:20.071Z,100.00
2022-09-04T04:07:54.152Z,100.00
2022-09-04T04:10:25.106Z,100.00
2022-09-04T04:13:02.134Z,100.00
2022-09-04T04:15:41.119Z,100.00
2022-09-04T04:18:15.083Z,100.00
2022-09-04T04:20:44.795Z,100.00
2022-09-04T04:23:22.809Z,100.00
2022-09-04T04:25:54.739Z,100.00
2022-09-04T04:28:33.343Z,100.00
2022-09-04T04:31:06.131Z,100.00
2022-09-04T04:33:40.362Z,100.00
2022-09-04T04:36:12.151Z,100.00
2022-09-04T04:38:52.764Z,100.00
2022-09-04T04:41:35.073Z,100.00
2022-09-04T04:44:06.967Z,100.00
2022-09-04T04:46:43.147Z,100.00
2022-09-04T04:49:18.699Z,100.00
2022-09-04T04:51:59.476Z,100.00
2022-09-04T04:54:32.303Z,100.00
2022-09-04T04:57:01.320Z,100.00
2022-09-04T04:59:30.736Z,100.00
2022-09-04T05:02:03.056Z,100.00
2022-09-04T05:04:37.562Z,100.00
2022-09-04T05:07:08.715Z,100.00
2022-09-04T05:09:39.825Z,100.00
2022-09-04T05:12:09.118Z,100.00
2022-09-04T05:14:39.641Z,100.00
2022-09-04T05:17:14.015Z,100.00
2022-09-04T05:19:45.127Z,100.00
2022-09-04T05:22:15.416Z,100.00
2022-09-04T05:24:47.136Z,100.00
2022-09-04T05:27:26.351Z,100.00
2022-09-04T05:29:58.191Z,100.00
2022-09-04T05:32:28.831Z,100.00
2022-09-04T05:35:06.612Z,100.00
2022-09-04T05:37:37.927Z,100.00
2022-09-04T05:40:06.818Z,100.00
2022-09-04T05:42:42.682Z,100.00
2022-09-04T05:45:12.588Z,100.00
2022-09-04T05:47:43.198Z,100.00
2022-09-04T05:50:24.382Z,100.00
2022-09-04T05:53:04.829Z,100.00
2022-09-04T05:55:49.227Z,100.00
2022-09-04T05:58:26.928Z,100.00
2022-09-04T06:00:57.148Z,100.00
2022-09-04T06:03:32.748Z,100.00
2022-09-04T06:06:11.051Z,100.00
2022-09-04T06:09:01.461Z,100.00
2022-09-04T06:11:36.290Z,100.00
2022-09-04T06:14:09.327Z,100.00
2022-09-04T06:16:43.018Z,100.00
2022-09-04T06:19:19.648Z,100.00
2022-09-04T06:22:03.759Z,100.00
2022-09-04T06:24:42.628Z,100.00
2022-09-04T06:27:17.489Z,100.00
2022-09-04T06:29:57.745Z,100.00
2022-09-04T06:32:35.330Z,100.00
2022-09-04T06:35:21.458Z,100.00
2022-09-04T06:37:53.350Z,100.00
2022-09-04T06:40:28.115Z,100.00
2022-09-04T06:43:05.311Z,100.00
2022-09-04T06:45:39.215Z,100.00
2022-09-04T06:48:10.185Z,100.00
2022-09-04T06:50:44.325Z,100.00
2022-09-04T06:53:26.467Z,100.00
2022-09-04T06:56:07.114Z,100.00
2022-09-04T06:58:44.635Z,100.00
2022-09-04T07:01:13.197Z,100.00
2022-09-04T07:03:44.308Z,100.00
2022-09-04T07:06:15.235Z,100.00
2022-09-04T07:08:48.709Z,100.00
2022-09-04T07:11:19.867Z,100.00
2022-09-04T07:13:52.049Z,100.00
2022-09-04T07:16:33.269Z,100.00
2022-09-04T07:19:05.971Z,100.00
2022-09-04T07:21:38.280Z,100.00
2022-09-04T07:24:08.766Z,100.00
2022-09-04T07:26:38.210Z,100.00
2022-09-04T07:29:25.126Z,100.00
2022-09-04T07:31:56.267Z,100.00
2022-09-04T07:34:25.636Z,100.00
2022-09-04T07:36:55.114Z,100.00
2022-09-04T07:39:25.185Z,100.00
2022-09-04T07:41:55.910Z,100.00
2022-09-04T07:44:23.914Z,100.00
2022-09-04T07:46:54.974Z,100.00
2022-09-04T07:49:23.988Z,100.00
2022-09-04T07:51:56.406Z,100.00
2022-09-04T07:54:46.886Z,100.00
2022-09-04T07:57:20.746Z,100.00
2022-09-04T08:00:00.566Z,100.00
2022-09-04T08:02:31.119Z,100.00
2022-09-04T08:05:05.642Z,100.00
2022-09-04T08:07:48.697Z,100.00
2022-09-04T08:10:24.431Z,100.00
2022-09-04T08:12:59.434Z,100.00
2022-09-04T08:15:30.117Z,100.00
2022-09-04T08:18:04.792Z,100.00
2022-09-04T08:20:38.603Z,100.00
2022-09-04T08:23:12.579Z,100.00
2022-09-04T08:25:46.373Z,100.00
2022-09-04T08:28:19.723Z,100.00
2022-09-04T08:30:51.277Z,100.00
2022-09-04T08:33:27.365Z,100.00
2022-09-04T08:35:55.867Z,100.00
2022-09-04T08:38:30.343Z,100.00
2022-09-04T08:41:09.710Z,100.00
2022-09-04T08:43:53.586Z,100.00
2022-09-04T08:46:41.293Z,100.00
2022-09-04T08:49:17.039Z,100.00
2022-09-04T08:52:01.366Z,100.00
2022-09-04T08:54:47.984Z,100.00
2022-09-04T08:57:29.183Z,100.00
2022-09-04T09:00:06.947Z,100.00
2022-09-04T09:03:04.823Z,100.00
2022-09-04T09:05:59.262Z,100.00
2022-09-04T09:08:44.427Z,100.00
2022-09-04T09:11:34.287Z,100.00
2022-09-04T09:16:36.388Z,100.00
2022-09-04T09:19:09.515Z,100.00
2022-09-04T09:21:41.787Z,100.00
2022-09-04T09:24:35.041Z,100.00
2022-09-04T09:27:12.038Z,100.00
2022-09-04T09:29:50.821Z,100.00
2022-09-04T09:32:44.039Z,100.00
2022-09-04T09:35:38.459Z,100.00
2022-09-04T09:38:19.671Z,100.00
2022-09-04T09:41:03.285Z,100.00
2022-09-04T09:43:56.811Z,100.00
2022-09-04T09:46:35.576Z,100.00
2022-09-04T09:49:26.131Z,100.00
2022-09-04T09:52:08.293Z,100.00
2022-09-04T09:54:53.099Z,100.00
2022-09-04T09:57:34.291Z,100.00
2022-09-04T10:00:05.806Z,100.00
2022-09-04T10:03:00.034Z,100.00
2022-09-04T10:05:50.486Z,100.00
2022-09-04T10:08:35.686Z,100.00
2022-09-04T10:11:16.496Z,100.00
2022-09-04T10:13:51.006Z,100.00
2022-09-04T10:16:35.230Z,100.00
2022-09-04T10:19:14.895Z,100.00
2022-09-04T10:21:57.295Z,100.00
2022-09-04T10:24:35.623Z,100.00
2022-09-04T10:27:28.518Z,100.00
2022-09-04T10:30:04.405Z,100.00
2022-09-04T10:32:38.830Z,100.00
2022-09-04T10:35:15.961Z,100.00
2022-09-04T10:37:53.422Z,100.00
2022-09-04T10:40:25.515Z,100.00
2022-09-04T10:43:00.331Z,100.00
2022-09-04T10:45:30.109Z,100.00
2022-09-04T10:48:17.435Z,100.00
2022-09-04T10:50:59.844Z,100.00
2022-09-04T10:53:36.986Z,100.00
2022-09-04T10:56:10.631Z,100.00
2022-09-04T10:58:51.822Z,100.00
2022-09-04T11:01:29.387Z,100.00
2022-09-04T11:04:01.770Z,100.00
2022-09-04T11:06:52.072Z,100.00
2022-09-04T11:09:30.488Z,100.00
2022-09-04T11:12:12.151Z,100.00
2022-09-04T11:14:58.482Z,100.00
2022-09-04T11:17:38.248Z,100.00
2022-09-04T11:20:21.807Z,100.00
2022-09-04T11:23:06.834Z,100.00
2022-09-04T11:25:54.374Z,100.00
2022-09-04T11:28:47.652Z,100.00
2022-09-04T11:31:31.064Z,100.00
2022-09-04T11:34:16.023Z,100.00
2022-09-04T11:36:53.327Z,100.00
2022-09-04T11:39:37.330Z,100.00
2022-09-04T11:42:15.411Z,100.00
2022-09-04T11:44:51.545Z,100.00
2022-09-04T11:47:37.230Z,100.00
2022-09-04T11:50:14.203Z,100.00
2022-09-04T11:52:50.056Z,100.00
2022-09-04T11:55:24.214Z,100.00
2022-09-04T11:58:09.270Z,100.00
2022-09-04T12:00:40.637Z,100.00
2022-09-04T12:03:24.798Z,100.00
2022-09-04T12:06:09.962Z,100.00
2022-09-04T12:09:09.310Z,100.00
2022-09-04T12:11:56.418Z,100.00
2022-09-04T12:14:33.606Z,100.00
2022-09-04T12:17:21.331Z,100.00
2022-09-04T12:19:57.459Z,100.00
2022-09-04T12:22:42.038Z,100.00
2022-09-04T12:25:29.776Z,100.00
2022-09-04T12:28:05.868Z,100.00
2022-09-04T12:30:42.722Z,100.00
2022-09-04T12:33:19.020Z,100.00
2022-09-04T12:35:52.149Z,99.85
2022-09-04T12:38:37.424Z,88.32
2022-09-04T12:41:09.291Z,91.23
2022-09-04T12:43:42.693Z,89.48
2022-09-04T12:46:15.189Z,83.06
2022-09-04T12:48:47.619Z,84.02
2022-09-04T12:51:15.099Z,74.65
2022-09-04T12:53:59.156Z,79.67
2022-09-04T12:56:33.856Z,78.61
2022-09-04T12:59:11.503Z,80.93
2022-09-04T13:01:48.847Z,75.44
2022-09-04T13:04:20.934Z,76.05
2022-09-04T13:06:53.509Z,72.50
2022-09-04T13:09:24.228Z,72.62
2022-09-04T13:11:59.239Z,72.30
2022-09-04T13:14:43.388Z,70.78
2022-09-04T13:17:18.274Z,70.71
2022-09-04T13:19:50.310Z,74.20
2022-09-04T13:22:24.264Z,73.47
2022-09-04T13:24:56.467Z,73.05
2022-09-04T13:27:29.769Z,73.24
2022-09-04T13:30:03.563Z,70.92
2022-09-04T13:32:45.088Z,69.26
2022-09-04T13:35:19.722Z,70.75
2022-09-04T13:37:56.367Z,68.48
2022-09-04T13:40:32.667Z,71.90
2022-09-04T13:43:14.297Z,65.17
2022-09-04T13:45:43.799Z,64.72
2022-09-04T13:48:11.948Z,63.90
2022-09-04T13:50:44.451Z,65.29
2022-09-04T13:53:14.261Z,66.94
2022-09-04T13:55:42.527Z,62.99
2022-09-04T13:58:18.923Z,65.04
2022-09-04T14:00:47.720Z,64.81
2022-09-04T14:03:17.515Z,62.48
2022-09-04T14:05:44.386Z,64.70
2022-09-04T14:08:14.420Z,64.26
2022-09-04T14:10:57.219Z,62.95
2022-09-04T14:13:35.040Z,61.27
2022-09-04T14:16:05.219Z,63.46
2022-09-04T14:18:46.473Z,64.97
2022-09-04T14:21:18.379Z,63.45
2022-09-04T14:23:50.239Z,63.41
2022-09-04T14:26:23.654Z,63.67
2022-09-04T14:28:58.119Z,62.12
2022-09-04T14:31:28.747Z,64.22
2022-09-04T14:34:06.584Z,63.78
2022-09-04T14:36:35.433Z,61.16
2022-09-04T14:39:16.194Z,62.04
2022-09-04T14:42:03.426Z,60.78
2022-09-04T14:44:41.423Z,60.57
2022-09-04T14:47:12.475Z,62.77
2022-09-04T14:49:41.377Z,63.49
2022-09-04T14:52:15.182Z,60.68
2022-09-04T14:54:41.757Z,63.09
2022-09-04T14:57:12.725Z,62.65
2022-09-04T14:59:43.390Z,62.15
2022-09-04T15:02:17.994Z,62.83
2022-09-04T15:04:46.760Z,61.62
2022-09-04T15:07:21.155Z,59.31
2022-09-04T15:09:49.665Z,59.25
2022-09-04T15:12:24.631Z,60.27
2022-09-04T15:14:56.224Z,60.57
2022-09-04T15:17:24.720Z,60.13
2022-09-04T15:19:53.989Z,61.88
2022-09-04T15:22:22.966Z,62.49
2022-09-04T15:24:52.480Z,62.42
2022-09-04T15:27:21.413Z,62.46
2022-09-04T15:29:58.295Z,62.93
2022-09-04T15:32:27.649Z,62.62
2022-09-04T15:35:05.887Z,62.72
2022-09-04T15:37:32.617Z,63.03
2022-09-04T15:40:03.818Z,62.36
2022-09-04T15:42:33.427Z,62.93
2022-09-04T15:45:00.427Z,62.92
2022-09-04T15:47:44.109Z,63.33
2022-09-04T15:50:18.447Z,61.79
2022-09-04T15:52:48.396Z,62.34
2022-09-04T15:55:21.030Z,63.62
2022-09-04T15:57:52.062Z,64.47
2022-09-04T16:00:21.568Z,63.92
2022-09-04T16:02:53.730Z,63.88
2022-09-04T16:05:24.063Z,63.73
2022-09-04T16:07:55.428Z,63.76
2022-09-04T16:10:23.743Z,63.74
2022-09-04T16:12:51.785Z,63.46
2022-09-04T16:15:21.091Z,63.78
2022-09-04T16:17:50.147Z,64.63
2022-09-04T16:20:21.679Z,64.71
2022-09-04T16:22:51.195Z,65.88
2022-09-04T16:25:23.670Z,62.89
2022-09-04T16:27:53.532Z,62.89
2022-09-04T16:30:30.634Z,62.90
2022-09-04T16:32:57.675Z,62.70
2022-09-04T16:35:27.223Z,62.38
2022-09-04T16:37:58.847Z,63.86
2022-09-04T16:40:29.219Z,64.08
2022-09-04T16:42:58.458Z,63.85
2022-09-04T16:45:27.477Z,65.05
2022-09-04T16:47:55.668Z,65.21
2022-09-04T16:50:24.896Z,65.33
2022-09-04T16:53:13.760Z,64.94
2022-09-04T16:55:44.784Z,65.01
2022-09-04T16:58:35.127Z,65.17
2022-09-04T17:01:13.842Z,65.76
2022-09-04T17:03:42.951Z,66.05
2022-09-04T17:06:16.186Z,66.41
2022-09-04T17:08:50.470Z,66.46
2022-09-04T17:11:20.411Z,67.20
2022-09-04T17:13:48.341Z,67.39
2022-09-04T17:16:18.666Z,68.40
2022-09-04T17:18:46.363Z,69.26
2022-09-04T17:26:16.719Z,69.50
2022-09-04T17:28:56.486Z,70.43
2022-09-04T17:29:15.426Z,70.57
2022-09-04T17:29:48.801Z,70.78
2022-09-04T17:32:32.181Z,71.68
2022-09-04T17:40:42.888Z,71.74
2022-09-04T17:40:49.400Z,72.46
2022-09-04T17:41:38.039Z,73.37
2022-09-04T17:43:52.379Z,73.87
2022-09-04T17:46:24.625Z,74.20
2022-09-04T17:48:51.103Z,74.89
2022-09-04T17:51:21.540Z,75.49
2022-09-04T17:53:51.318Z,78.47
2022-09-04T17:56:21.474Z,80.56
2022-09-04T17:58:49.486Z,82.43
2022-09-04T18:01:19.867Z,85.66
2022-09-04T18:04:04.215Z,88.23
2022-09-04T18:06:39.113Z,86.83
2022-09-04T18:09:09.165Z,89.73
2022-09-04T18:11:39.401Z,92.77
2022-09-04T18:14:12.652Z,94.39
2022-09-04T18:17:11.729Z,99.77
2022-09-04T18:19:42.236Z,100.00
2022-09-04T18:22:26.676Z,100.00
2022-09-04T18:25:00.679Z,100.00
2022-09-04T18:27:49.358Z,100.00
2022-09-04T18:37:08.433Z,100.00
2022-09-04T18:37:20.113Z,100.00
2022-09-04T18:37:23.603Z,100.00
2022-09-04T18:39:22.145Z,100.00
2022-09-04T18:48:30.488Z,100.00
2022-09-04T18:50:38.073Z,100.00
2022-09-04T18:50:51.325Z,100.00
2022-09-04T18:51:14.602Z,100.00
2022-09-04T18:53:27.012Z,100.00
2022-09-04T18:55:55.599Z,100.00
2022-09-04T18:58:40.807Z,100.00
2022-09-04T19:01:11.907Z,100.00
2022-09-04T19:03:41.645Z,100.00
2022-09-04T19:06:11.331Z,100.00
2022-09-04T19:08:41.263Z,100.00
2022-09-04T19:11:20.508Z,100.00
2022-09-04T19:13:50.288Z,100.00
2022-09-04T19:16:22.537Z,100.00
2022-09-04T19:18:51.088Z,100.00
2022-09-04T19:21:30.939Z,100.00
2022-09-04T19:24:00.186Z,100.00
2022-09-04T19:26:33.349Z,100.00
2022-09-04T19:29:05.589Z,100.00
2022-09-04T19:31:35.005Z,100.00
2022-09-04T19:34:08.469Z,100.00
2022-09-04T19:36:37.598Z,100.00
2022-09-04T19:46:00.423Z,100.00
2022-09-04T19:46:05.892Z,100.00
2022-09-04T19:46:19.715Z,100.00
2022-09-04T19:47:49.286Z,100.00
2022-09-04T19:53:21.408Z,100.00
2022-09-04T19:53:29.900Z,100.00
2022-09-04T19:55:56.402Z,100.00
2022-09-04T19:58:25.504Z,100.00
2022-09-04T20:00:55.449Z,100.00
2022-09-04T20:03:30.059Z,100.00
2022-09-04T20:06:00.509Z,100.00
2022-09-04T20:08:47.962Z,100.00
2022-09-04T20:11:27.244Z,100.00
2022-09-04T20:14:13.908Z,100.00
2022-09-04T20:16:48.534Z,100.00
2022-09-04T20:19:27.917Z,100.00
2022-09-04T20:21:57.287Z,100.00
2022-09-04T20:24:25.645Z,100.00
2022-09-04T20:26:53.935Z,100.00
2022-09-04T20:29:23.095Z,100.00
2022-09-04T20:31:52.989Z,100.00
2022-09-04T20:34:29.620Z,100.00
2022-09-04T20:37:01.625Z,100.00
2022-09-04T20:39:32.253Z,100.00
2022-09-04T20:42:00.683Z,100.00
2022-09-04T20:44:30.491Z,100.00
2022-09-04T20:52:45.270Z,100.00
2022-09-04T20:52:59.376Z,100.00
2022-09-04T20:53:07.937Z,100.00
2022-09-04T20:55:37.099Z,100.00
2022-09-04T21:03:09.097Z,100.00
2022-09-04T21:03:17.938Z,100.00
2022-09-04T21:04:07.957Z,100.00
2022-09-04T21:06:42.162Z,100.00
2022-09-04T21:09:23.387Z,100.00
2022-09-04T21:11:51.615Z,100.00
2022-09-04T21:14:20.460Z,100.00
2022-09-04T21:17:34.568Z,100.00
2022-09-04T21:20:04.538Z,100.00
2022-09-04T21:22:39.089Z,100.00
2022-09-04T21:25:18.683Z,100.00
2022-09-04T21:28:03.836Z,100.00
2022-09-04T21:30:52.816Z,100.00
2022-09-04T21:33:26.655Z,100.00
2022-09-04T21:36:25.558Z,100.00
2022-09-04T21:38:58.047Z,100.00
2022-09-04T21:41:29.217Z,100.00
2022-09-04T21:44:19.496Z,100.00
2022-09-04T21:46:55.222Z,100.00
2022-09-04T21:49:36.565Z,100.00
2022-09-04T21:52:14.480Z,100.00
2022-09-04T21:58:47.456Z,100.00
2022-09-04T22:02:45.028Z,100.00
2022-09-04T22:03:55.114Z,100.00
2022-09-04T22:06:41.062Z,100.00
2022-09-04T22:13:31.649Z,100.00
2022-09-04T22:13:43.377Z,100.00
2022-09-04T22:15:02.568Z,100.00
2022-09-04T22:17:41.151Z,100.00
2022-09-04T22:20:25.383Z,100.00
2022-09-04T22:23:09.960Z,100.00
2022-09-04T22:25:46.515Z,100.00
2022-09-04T22:28:36.862Z,100.00
2022-09-04T22:31:17.749Z,100.00
2022-09-04T22:34:15.369Z,100.00
2022-09-04T22:37:00.749Z,100.00
2022-09-04T22:39:39.420Z,100.00
2022-09-04T22:42:20.201Z,100.00
2022-09-04T22:44:57.077Z,100.00
2022-09-04T22:47:55.863Z,100.00
2022-09-04T22:50:49.659Z,100.00
2022-09-04T22:53:28.660Z,100.00
2022-09-04T22:55:56.507Z,100.00
2022-09-04T22:58:51.283Z,100.00
2022-09-04T23:01:36.257Z,100.00
2022-09-04T23:04:11.393Z,100.00
2022-09-04T23:13:01.370Z,100.00
2022-09-04T23:13:52.745Z,100.00
2022-09-04T23:14:00.284Z,100.00
2022-09-04T23:15:54.966Z,100.00
2022-09-04T23:21:13.605Z,100.00
2022-09-04T23:26:37.308Z,100.00
2022-09-04T23:26:45.330Z,100.00
2022-09-04T23:27:31.819Z,100.00
2022-09-04T23:30:03.249Z,100.00
2022-09-04T23:32:37.428Z,100.00
2022-09-04T23:35:15.716Z,100.00
2022-09-04T23:38:00.136Z,100.00
2022-09-04T23:40:36.639Z,100.00
2022-09-04T23:43:18.918Z,100.00
2022-09-04T23:46:01.359Z,100.00
2022-09-04T23:48:36.742Z,100.00
2022-09-04T23:51:11.652Z,100.00
2022-09-04T23:53:44.432Z,100.00
2022-09-04T23:56:21.535Z,100.00
2022-09-04T23:58:56.374Z,100.00
